Time;durP1;ratioP1;P1;durP2;ratioP2;P2;SDS_P1;SDS_P2;PMS_P1;PMS_P2;Temp;Humidity;BMP_temperature;BMP_pressure;BME280_temperature;BME280_humidity;BME280_pressure;Samples;Min_cycle;Max_cycle;Signal;HPM_P1;HPM_P2
2022/06/23 00:01:00;;;;;;;16.98;5.38;;;;;;;13.54;100.00;92861.22;2106945;28;20148;-82
2022/06/23 00:02:18;;;;;;;19.52;5.30;;;;;;;13.47;100.00;92864.16;2106837;28;20035;-83
2022/06/23 00:03:21;;;;;;;10.50;5.47;;;;;;;13.49;100.00;92853.00;2090216;28;20087;-83
2022/06/23 00:04:26;;;;;;;17.20;5.63;;;;;;;13.50;100.00;92862.53;2099316;28;20435;-82
2022/06/23 00:05:35;;;;;;;11.82;4.93;;;;;;;13.44;100.00;92858.94;2093292;28;20025;-82
2022/06/23 00:06:48;;;;;;;15.68;5.30;;;;;;;13.41;100.00;92865.94;2092526;28;20238;-82
2022/06/23 00:07:53;;;;;;;10.85;4.90;;;;;;;13.43;100.00;92862.78;2102424;28;20021;-81
2022/06/23 00:08:55;;;;;;;11.40;4.85;;;;;;;13.47;100.00;92858.03;2099066;28;20062;-82
2022/06/23 00:10:01;;;;;;;15.88;5.68;;;;;;;13.48;100.00;92854.94;2089912;28;20106;-83
2022/06/23 00:11:02;;;;;;;16.13;5.13;;;;;;;13.43;100.00;92860.84;2108292;27;20020;-81
2022/06/23 00:12:18;;;;;;;13.60;5.32;;;;;;;13.44;100.00;92851.63;2098331;28;20020;-81
2022/06/23 00:13:37;;;;;;;12.07;5.13;;;;;;;13.48;100.00;92860.31;2094218;28;20025;-82
2022/06/23 00:14:38;;;;;;;15.23;5.25;;;;;;;13.34;100.00;92852.75;2092162;28;20025;-83
2022/06/23 00:15:43;;;;;;;12.43;4.75;;;;;;;13.36;100.00;92858.44;2101457;28;20032;-82
2022/06/23 00:16:45;;;;;;;12.68;5.07;;;;;;;13.33;100.00;92859.31;2090490;28;20035;-82
2022/06/23 00:17:55;;;;;;;20.75;5.80;;;;;;;13.33;100.00;92865.44;2090123;28;20025;-82
2022/06/23 00:18:57;;;;;;;22.23;6.15;;;;;;;13.26;100.00;92857.66;2091269;28;20404;-81
2022/06/23 00:20:29;;;;;;;16.30;5.63;;;;;;;13.31;100.00;92859.78;2098558;28;20074;-82
2022/06/23 00:21:33;;;;;;;12.25;5.40;;;;;;;13.32;100.00;92850.53;2105904;28;20040;-82
2022/06/23 00:22:38;;;;;;;13.07;5.40;;;;;;;13.31;100.00;92856.34;2098227;28;20495;-82
2022/06/23 00:23:43;;;;;;;11.18;5.68;;;;;;;13.32;100.00;92855.16;2098208;28;20542;-81
2022/06/23 00:24:48;;;;;;;16.38;6.07;;;;;;;13.33;100.00;92853.94;2089833;28;20091;-82
2022/06/23 00:26:01;;;;;;;12.70;5.93;;;;;;;13.27;100.00;92861.84;2090340;28;20070;-81
2022/06/23 00:27:03;;;;;;;16.30;6.00;;;;;;;13.23;100.00;92855.84;2091687;28;20064;-81
2022/06/23 00:28:05;;;;;;;14.95;5.53;;;;;;;13.22;100.00;92865.09;2089859;28;20021;-82
2022/06/23 00:29:16;;;;;;;25.38;6.47;;;;;;;13.21;100.00;92862.78;2073789;28;20436;-82
2022/06/23 00:30:25;;;;;;;14.50;5.78;;;;;;;13.14;100.00;92861.13;2084384;28;20473;-82
2022/06/23 00:31:29;;;;;;;17.83;6.00;;;;;;;13.04;100.00;92857.63;2082656;28;20079;-82
2022/06/23 00:32:30;;;;;;;12.68;5.22;;;;;;;13.15;100.00;92864.56;2082118;28;21375;-82
2022/06/23 00:33:41;;;;;;;12.07;5.10;;;;;;;13.16;100.00;92866.03;2081507;28;20029;-81
2022/06/23 00:34:52;;;;;;;11.63;5.93;;;;;;;13.13;100.00;92867.69;2076052;28;20565;-82
2022/06/23 00:35:56;;;;;;;20.75;5.78;;;;;;;13.07;100.00;92864.06;2084601;28;20021;-82
2022/06/23 00:37:07;;;;;;;13.18;5.20;;;;;;;12.96;100.00;92867.13;2090843;28;20055;-82
2022/06/23 00:38:24;;;;;;;14.90;4.88;;;;;;;13.01;100.00;92866.56;2092548;28;20182;-81
2022/06/23 00:39:35;;;;;;;15.32;5.28;;;;;;;13.04;100.00;92863.00;2102654;28;20037;-82
2022/06/23 00:40:42;;;;;;;15.95;5.95;;;;;;;13.05;100.00;92867.19;2099345;28;20020;-81
2022/06/23 00:41:45;;;;;;;13.98;5.28;;;;;;;12.96;100.00;92866.38;2091165;28;20565;-82
2022/06/23 00:43:02;;;;;;;15.57;5.47;;;;;;;13.02;100.00;92865.38;2098707;28;20027;-82
2022/06/23 00:44:17;;;;;;;18.00;6.03;;;;;;;13.03;100.00;92864.16;2108713;28;20544;-82
2022/06/23 00:45:20;;;;;;;13.95;5.15;;;;;;;13.12;100.00;92860.81;2099590;28;20028;-81
2022/06/23 00:46:31;;;;;;;17.77;5.15;;;;;;;13.10;100.00;92857.81;2098510;28;20488;-82
2022/06/23 00:47:40;;;;;;;17.98;6.15;;;;;;;13.05;100.00;92867.19;2106376;28;20024;-82
2022/06/23 00:48:51;;;;;;;11.80;5.40;;;;;;;12.97;100.00;92868.59;2099268;28;20020;-81
2022/06/23 00:50:19;;;;;;;10.32;4.88;;;;;;;12.92;100.00;92861.13;2100639;28;20066;-82
2022/06/23 00:51:26;;;;;;;15.35;5.95;;;;;;;12.92;100.00;92866.50;2110137;28;20075;-82
2022/06/23 00:52:43;;;;;;;17.25;5.38;;;;;;;12.85;100.00;92864.78;2089694;28;20028;-81
2022/06/23 00:53:53;;;;;;;10.60;4.75;;;;;;;12.85;100.00;92864.03;2077635;28;20061;-83
2022/06/23 00:54:59;;;;;;;13.27;4.60;;;;;;;12.81;100.00;92863.41;2082730;28;20409;-81
2022/06/23 00:56:06;;;;;;;11.75;5.18;;;;;;;12.74;100.00;92858.31;2082811;28;20021;-82
2022/06/23 00:57:27;;;;;;;14.57;5.15;;;;;;;12.74;100.00;92869.03;2102876;28;20397;-81
2022/06/23 00:58:47;;;;;;;12.13;5.18;;;;;;;12.72;100.00;92868.72;2100541;28;20036;-81
2022/06/23 00:59:55;;;;;;;12.43;5.13;;;;;;;12.75;100.00;92865.91;2092135;28;20500;-82
2022/06/23 01:01:39;;;;;;;13.35;5.50;;;;;;;12.69;100.00;92873.03;2082255;28;20044;-82
2022/06/23 01:02:59;;;;;;;10.77;4.82;;;;;;;12.73;100.00;92867.53;2083807;28;20040;-82
2022/06/23 01:04:03;;;;;;;;;;;;;;;12.74;100.00;92861.00;2106700;28;20088;-81
2022/06/23 01:05:18;;;;;;;12.80;5.15;;;;;;;12.70;100.00;92866.47;2086350;28;19919;-81
2022/06/23 01:06:42;;;;;;;15.35;5.43;;;;;;;12.72;100.00;92866.03;2093242;28;20029;-82
2022/06/23 01:07:57;;;;;;;13.70;4.72;;;;;;;12.71;100.00;92865.28;2101333;28;20032;-82
2022/06/23 01:09:13;;;;;;;14.38;5.85;;;;;;;12.67;100.00;92866.59;2099883;28;20033;-81
2022/06/23 01:11:06;;;;;;;13.38;4.93;;;;;;;12.71;100.00;92878.69;2108346;28;20076;-81
2022/06/23 01:12:52;;;;;;;11.23;4.72;;;;;;;12.76;100.00;92877.38;2087415;28;20041;-81
2022/06/23 01:14:06;;;;;;;15.68;4.88;;;;;;;12.78;100.00;92873.09;2084284;28;20037;-82
2022/06/23 01:15:28;;;;;;;15.02;5.03;;;;;;;12.64;100.00;92873.56;2089987;28;20047;-82
2022/06/23 01:16:40;;;;;;;10.55;5.40;;;;;;;12.58;100.00;92873.38;2100793;28;20460;-82
2022/06/23 01:17:47;;;;;;;16.08;5.43;;;;;;;12.54;100.00;92882.72;2089300;28;20427;-82
2022/06/23 01:19:22;;;;;;;16.65;5.65;;;;;;;12.53;100.00;92873.19;2073899;28;20102;-81
2022/06/23 01:20:31;;;;;;;13.93;5.32;;;;;;;12.59;100.00;92869.50;2090306;28;20639;-82
2022/06/23 01:21:39;;;;;;;17.80;5.28;;;;;;;12.55;100.00;92876.16;2081114;28;20793;-82
2022/06/23 01:22:49;;;;;;;14.48;5.57;;;;;;;12.58;100.00;92872.63;2083293;28;20547;-81
2022/06/23 01:24:20;;;;;;;17.05;5.32;;;;;;;12.71;100.00;92877.94;2081160;28;20029;-83
2022/06/23 01:25:27;;;;;;;12.80;5.20;;;;;;;12.71;100.00;92875.25;2081091;28;20494;-82
2022/06/23 01:26:59;;;;;;;11.70;5.05;;;;;;;12.70;100.00;92876.47;2090208;28;20024;-81
2022/06/23 01:28:15;;;;;;;9.82;4.80;;;;;;;12.67;100.00;92880.75;2074417;28;20048;-81
2022/06/23 01:29:30;;;;;;;15.15;5.70;;;;;;;12.64;100.00;92878.91;2081007;28;20057;-82
2022/06/23 01:31:03;;;;;;;11.80;5.63;;;;;;;12.60;100.00;92871.00;2076548;28;20410;-81
2022/06/23 01:32:24;;;;;;;13.27;6.15;;;;;;;12.59;100.00;92864.13;2078292;28;20045;-82
2022/06/23 01:33:38;;;;;;;11.13;4.80;;;;;;;12.51;100.00;92872.84;2095894;28;20036;-81
2022/06/23 01:34:55;;;;;;;11.00;5.22;;;;;;;12.55;100.00;92874.22;2091033;28;20036;-82
2022/06/23 01:36:14;;;;;;;13.43;4.82;;;;;;;12.53;100.00;92873.19;2083049;28;20057;-83
2022/06/23 01:37:22;;;;;;;15.50;4.53;;;;;;;12.62;100.00;92872.50;2086479;28;20449;-82
2022/06/23 01:38:50;;;;;;;8.40;4.82;;;;;;;12.71;100.00;92873.31;2080535;28;20432;-81
2022/06/23 01:40:09;;;;;;;7.93;4.57;;;;;;;12.75;100.00;92865.91;2080956;28;20025;-81
2022/06/23 01:41:19;;;;;;;5.40;3.42;;;;;;;12.82;100.00;92872.97;2081089;28;20036;-82
2022/06/23 01:42:33;;;;;;;9.07;4.88;;;;;;;12.89;100.00;92878.09;2075390;28;20043;-83
2022/06/23 01:43:46;;;;;;;6.88;3.90;;;;;;;12.89;100.00;92875.41;2083927;28;20111;-80
2022/06/23 01:45:00;;;;;;;9.15;4.70;;;;;;;12.95;100.00;92876.34;2081066;28;20035;-82
2022/06/23 01:46:09;;;;;;;13.25;5.93;;;;;;;12.92;100.00;92876.47;2076247;28;20462;-82
2022/06/23 01:47:23;;;;;;;12.50;4.13;;;;;;;12.98;100.00;92883.50;2073898;28;20033;-82
2022/06/23 01:48:53;;;;;;;14.02;5.13;;;;;;;13.04;100.00;92879.09;2074421;28;20391;-81
2022/06/23 01:50:04;;;;;;;9.35;4.85;;;;;;;13.04;100.00;92881.03;2084912;28;20029;-82
2022/06/23 01:51:05;;;;;;;10.45;5.18;;;;;;;13.07;100.00;92875.53;2090721;28;20029;-82
2022/06/23 01:52:20;;;;;;;12.55;5.25;;;;;;;13.08;100.00;92862.84;2089278;28;20478;-81
2022/06/23 01:53:27;;;;;;;16.55;5.75;;;;;;;13.10;100.00;92880.03;2084768;28;20021;-82
2022/06/23 01:54:32;;;;;;;12.52;4.80;;;;;;;13.16;100.00;92869.47;2089851;28;20078;-82
2022/06/23 01:55:48;;;;;;;10.57;4.97;;;;;;;13.21;100.00;92868.16;2088985;28;20516;-82
2022/06/23 01:57:25;;;;;;;9.35;4.57;;;;;;;13.19;100.00;92873.22;2090540;28;20037;-81
2022/06/23 01:58:38;;;;;;;16.48;5.00;;;;;;;13.25;100.00;92874.19;2090016;28;20503;-82
2022/06/23 01:59:47;;;;;;;14.35;4.57;;;;;;;13.27;100.00;92863.78;2085610;28;20029;-82
2022/06/23 02:00:53;;;;;;;11.65;5.38;;;;;;;13.28;100.00;92873.31;2090027;28;20029;-81
2022/06/23 02:02:31;;;;;;;18.48;6.22;;;;;;;13.28;100.00;92871.38;2081691;28;20029;-82
2022/06/23 02:03:40;;;;;;;18.10;6.00;;;;;;;13.32;100.00;92879.31;2094355;28;20021;-82
2022/06/23 02:04:51;;;;;;;19.58;7.03;;;;;;;13.32;100.00;92873.94;2086673;28;20417;-82
2022/06/23 02:06:10;;;;;;;17.25;5.60;;;;;;;13.36;100.00;92877.25;2074077;28;20022;-83
2022/06/23 02:07:21;;;;;;;42.03;6.20;;;;;;;13.39;100.00;92875.59;2085823;28;20582;-82
2022/06/23 02:08:35;;;;;;;29.60;6.80;;;;;;;13.42;100.00;92878.16;2097639;28;20024;-82
2022/06/23 02:09:49;;;;;;;37.95;6.78;;;;;;;13.38;100.00;92874.09;2080765;28;20029;-82
2022/06/23 02:10:55;;;;;;;25.70;6.90;;;;;;;13.38;100.00;92888.28;2080196;28;20021;-82
2022/06/23 02:11:58;;;;;;;30.90;6.47;;;;;;;13.43;100.00;92876.22;2081536;28;20048;-82
2022/06/23 02:13:02;;;;;;;28.75;7.25;;;;;;;13.46;100.00;92880.72;2089222;28;20120;-82
2022/06/23 02:14:36;;;;;;;23.48;7.13;;;;;;;13.45;100.00;92877.28;2096822;28;20043;-81
2022/06/23 02:15:56;;;;;;;25.75;6.40;;;;;;;13.50;100.00;92884.78;2093197;28;20032;-82
2022/06/23 02:17:10;;;;;;;36.90;7.35;;;;;;;13.58;100.00;92875.28;2094169;28;20021;-82
2022/06/23 02:18:37;;;;;;;35.55;6.90;;;;;;;13.57;100.00;92876.47;2107772;28;20035;-82
2022/06/23 02:19:44;;;;;;;23.02;6.45;;;;;;;13.63;100.00;92878.56;2092801;28;20582;-82
2022/06/23 02:21:04;;;;;;;19.85;6.20;;;;;;;13.59;100.00;92884.06;2089578;28;20067;-82
2022/06/23 02:22:18;;;;;;;21.65;7.00;;;;;;;13.59;100.00;92884.06;2080195;28;20029;-82
2022/06/23 02:23:28;;;;;;;32.72;7.35;;;;;;;13.54;100.00;92877.34;2084462;28;20500;-81
2022/06/23 02:24:36;;;;;;;21.50;6.70;;;;;;;13.53;100.00;92886.59;2090379;28;20473;-82
2022/06/23 02:25:43;;;;;;;21.80;6.78;;;;;;;13.50;100.00;92882.09;2096263;28;20081;-83
2022/06/23 02:26:53;;;;;;;15.00;7.00;;;;;;;13.54;100.00;92892.69;2090068;28;20473;-82
2022/06/23 02:28:20;;;;;;;;;;;;;;;13.56;100.00;92888.41;2090256;28;20072;-82
2022/06/23 02:29:58;;;;;;;12.40;6.70;;;;;;;13.62;100.00;92896.63;2059702;28;19963;-82
2022/06/23 02:31:29;;;;;;;22.27;7.05;;;;;;;13.53;100.00;92883.16;2094425;28;20070;-82
2022/06/23 02:33:13;;;;;;;16.63;7.40;;;;;;;13.56;100.00;92896.47;2077712;28;20049;-82
2022/06/23 02:34:29;;;;;;;28.92;7.50;;;;;;;13.58;100.00;92893.31;2092659;28;20029;-81
2022/06/23 02:35:49;;;;;;;24.33;6.63;;;;;;;13.62;100.00;92891.25;2087419;28;20045;-82
2022/06/23 02:37:29;;;;;;;23.20;6.55;;;;;;;13.62;100.00;92888.56;2080842;28;20025;-82
2022/06/23 02:38:35;;;;;;;14.50;6.90;;;;;;;13.73;100.00;92896.97;2091541;28;20464;-82
2022/06/23 02:39:47;;;;;;;28.75;7.35;;;;;;;13.66;100.00;92889.19;2081431;28;20085;-82
2022/06/23 02:41:10;;;;;;;16.52;7.20;;;;;;;13.69;100.00;92893.66;2083638;28;20037;-82
2022/06/23 02:42:35;;;;;;;14.48;6.63;;;;;;;13.70;100.00;92894.44;2091481;28;20017;-83
2022/06/23 02:43:45;;;;;;;15.63;6.35;;;;;;;13.65;100.00;92892.28;2079463;28;20060;-81
2022/06/23 02:44:49;;;;;;;15.38;6.78;;;;;;;13.56;100.00;92893.78;2091449;28;20025;-83
2022/06/23 02:46:20;;;;;;;17.15;7.18;;;;;;;13.58;100.00;92894.06;2088953;28;20025;-82
2022/06/23 02:47:36;;;;;;;17.00;7.57;;;;;;;13.53;100.00;92894.66;2101217;28;20501;-83
2022/06/23 02:49:08;;;;;;;13.23;6.70;;;;;;;13.48;100.00;92889.84;2097209;28;20028;-83
2022/06/23 02:50:46;;;;;;;16.02;6.82;;;;;;;13.45;100.00;92889.97;2083803;28;20032;-82
2022/06/23 02:52:09;;;;;;;9.45;6.72;;;;;;;13.41;100.00;92892.78;2088823;28;20032;-82
2022/06/23 02:53:29;;;;;;;9.30;5.90;;;;;;;13.36;100.00;92887.97;2078550;28;20040;-82
2022/06/23 02:54:44;;;;;;;11.73;5.95;;;;;;;13.37;100.00;92889.47;2091678;28;20603;-82
2022/06/23 02:56:06;;;;;;;9.00;6.05;;;;;;;13.29;100.00;92880.91;2097224;28;20494;-82
2022/06/23 02:57:27;;;;;;;13.90;6.25;;;;;;;13.32;100.00;92890.03;2083078;28;20025;-82
2022/06/23 02:58:41;;;;;;;9.70;5.68;;;;;;;13.21;100.00;92895.00;2099653;28;20039;-82
2022/06/23 02:59:48;;;;;;;9.90;5.95;;;;;;;13.21;100.00;92878.91;2097405;28;20376;-83
2022/06/23 03:01:01;;;;;;;10.57;6.22;;;;;;;13.12;100.00;92882.28;2081384;28;20032;-82
2022/06/23 03:02:10;;;;;;;8.60;5.55;;;;;;;13.09;100.00;92881.22;2083980;28;20052;-82
2022/06/23 03:03:18;;;;;;;12.88;6.03;;;;;;;12.95;100.00;92884.41;2080270;28;20025;-82
2022/06/23 03:04:35;;;;;;;8.27;5.72;;;;;;;12.98;100.00;92878.16;2090761;28;20029;-82
2022/06/23 03:06:12;;;;;;;8.75;5.97;;;;;;;12.98;100.00;92880.84;2080490;28;20021;-82
2022/06/23 03:07:25;;;;;;;13.25;5.93;;;;;;;12.94;100.00;92885.56;2073795;28;20029;-82
2022/06/23 03:08:32;;;;;;;10.07;5.28;;;;;;;12.90;100.00;92887.63;2082739;28;20036;-83
2022/06/23 03:09:40;;;;;;;9.43;5.63;;;;;;;12.75;100.00;92884.69;2090430;28;20071;-82
2022/06/23 03:11:01;;;;;;;7.18;5.28;;;;;;;12.82;100.00;92889.81;2091353;28;20029;-83
2022/06/23 03:12:13;;;;;;;11.50;5.70;;;;;;;12.83;100.00;92883.25;2090460;28;20024;-82
2022/06/23 03:13:40;;;;;;;7.22;4.88;;;;;;;12.85;100.00;92886.25;2091587;28;20115;-82
2022/06/23 03:15:03;;;;;;;13.45;5.43;;;;;;;12.81;100.00;92884.88;2087758;28;20044;-82
2022/06/23 03:16:16;;;;;;;11.77;5.70;;;;;;;12.85;100.00;92890.88;2095552;28;20039;-82
2022/06/23 03:17:39;;;;;;;15.90;5.68;;;;;;;12.86;100.00;92889.69;2092162;28;20036;-81
2022/06/23 03:19:03;;;;;;;10.93;5.18;;;;;;;12.89;100.00;92888.81;2093450;28;20021;-82
2022/06/23 03:20:08;;;;;;;16.60;5.80;;;;;;;12.90;100.00;92887.63;2098640;28;20074;-82
2022/06/23 03:21:20;;;;;;;17.08;5.85;;;;;;;12.96;100.00;92893.19;2099214;28;20066;-82
2022/06/23 03:22:47;;;;;;;19.88;6.63;;;;;;;12.98;100.00;92888.88;2090408;28;20078;-83
2022/06/23 03:23:56;;;;;;;18.73;6.55;;;;;;;13.10;100.00;92900.75;2089173;28;20048;-82
2022/06/23 03:25:04;;;;;;;35.17;6.72;;;;;;;13.05;100.00;92894.00;2083281;28;20061;-81
2022/06/23 03:26:24;;;;;;;12.65;5.93;;;;;;;13.06;100.00;92895.50;2084072;28;20489;-83
2022/06/23 03:27:32;;;;;;;19.88;6.68;;;;;;;13.06;100.00;92898.19;2084665;28;20041;-82
2022/06/23 03:28:39;;;;;;;14.27;6.38;;;;;;;13.04;100.00;92891.78;2078017;28;20037;-81
2022/06/23 03:29:55;;;;;;;14.60;6.03;;;;;;;13.05;100.00;92896.69;2083073;28;20033;-82
2022/06/23 03:31:46;;;;;;;10.00;5.60;;;;;;;13.05;100.00;92894.00;2078066;28;20026;-82
2022/06/23 03:32:59;;;;;;;14.77;5.85;;;;;;;13.01;100.00;92900.69;2057719;28;20037;-82
2022/06/23 03:34:47;;;;;;;7.90;4.88;;;;;;;12.97;100.00;92906.16;2068608;28;20030;-81
2022/06/23 03:35:55;;;;;;;7.07;4.90;;;;;;;13.09;100.00;92900.00;2090442;28;20473;-82
2022/06/23 03:37:06;;;;;;;7.18;5.30;;;;;;;13.09;100.00;92901.94;2089911;28;20107;-83
2022/06/23 03:41:54;;;;;;;6.00;4.82;;;;;;;13.11;100.00;92900.31;2098512;28;20029;-82
2022/06/23 03:43:00;;;;;;;8.02;4.88;;;;;;;13.09;100.00;92896.56;2090263;28;20100;-82
2022/06/23 03:44:28;;;;;;;6.65;4.47;;;;;;;13.09;100.00;92904.63;2090200;28;20021;-81
2022/06/23 03:45:42;;;;;;;8.55;4.57;;;;;;;13.05;100.00;92904.75;2075893;28;20079;-82
2022/06/23 03:47:06;;;;;;;8.15;4.80;;;;;;;13.09;100.00;92907.31;2090343;28;20120;-82
2022/06/23 03:48:16;;;;;;;11.25;4.82;;;;;;;12.98;100.00;92904.22;2103763;27;20079;-82
2022/06/23 03:49:23;;;;;;;;;;;;;;;12.99;100.00;92906.47;2107447;28;20026;-81
2022/06/23 03:50:49;;;;;;;9.80;4.43;;;;;;;13.02;100.00;92897.56;2097840;28;19987;-81
2022/06/23 03:51:55;;;;;;;9.13;4.45;;;;;;;13.07;100.00;92896.25;2101701;28;20056;-81
2022/06/23 03:53:55;;;;;;;8.93;4.32;;;;;;;12.97;100.00;92900.81;2100055;28;20024;-82
2022/06/23 03:55:21;;;;;;;5.63;4.25;;;;;;;13.08;100.00;92897.75;2052630;28;20042;-82
2022/06/23 03:56:26;;;;;;;6.28;3.80;;;;;;;13.19;100.00;92900.06;2088554;28;20477;-82
2022/06/23 03:57:35;;;;;;;8.48;4.55;;;;;;;13.07;100.00;92907.72;2090708;28;20036;-82
2022/06/23 03:58:53;;;;;;;5.47;3.88;;;;;;;13.07;100.00;92902.38;2099708;28;20028;-83
2022/06/23 04:00:13;;;;;;;7.38;3.60;;;;;;;13.04;100.00;92897.88;2090051;28;20040;-82
2022/06/23 04:01:24;;;;;;;7.18;4.13;;;;;;;12.92;100.00;92900.63;2087083;28;20029;-81
2022/06/23 04:02:30;;;;;;;5.85;4.28;;;;;;;12.96;100.00;92893.94;2096467;28;20029;-82
2022/06/23 04:03:36;;;;;;;10.85;4.60;;;;;;;12.92;100.00;92898.69;2099751;28;20035;-82
2022/06/23 04:04:56;;;;;;;6.82;4.13;;;;;;;12.90;100.00;92905.66;2099055;28;20024;-82
2022/06/23 04:05:57;;;;;;;6.63;4.40;;;;;;;12.85;100.00;92907.72;2095243;28;20120;-82
2022/06/23 04:06:59;;;;;;;5.28;4.20;;;;;;;12.83;100.00;92899.34;2098303;28;20032;-82
2022/06/23 04:08:03;;;;;;;9.15;4.43;;;;;;;12.86;100.00;92908.47;2090204;28;20029;-82
2022/06/23 04:09:36;;;;;;;7.25;4.40;;;;;;;12.85;100.00;92915.75;2098799;28;20024;-82
2022/06/23 04:10:43;;;;;;;8.77;4.20;;;;;;;12.85;100.00;92912.31;2061392;28;20037;-82
2022/06/23 04:11:53;;;;;;;8.27;4.93;;;;;;;12.90;100.00;92916.38;2084347;28;20036;-81
2022/06/23 04:13:06;;;;;;;7.43;4.85;;;;;;;12.85;100.00;92907.72;2076955;28;20030;-83
2022/06/23 04:14:10;;;;;;;7.57;5.05;;;;;;;12.94;100.00;92909.72;2097822;28;20021;-82
2022/06/23 04:15:17;;;;;;;5.68;4.10;;;;;;;12.95;100.00;92911.25;2092470;28;20131;-81
2022/06/23 04:16:24;;;;;;;9.55;4.38;;;;;;;12.95;100.00;92908.56;2091734;28;20389;-82
2022/06/23 04:17:33;;;;;;;5.63;4.22;;;;;;;12.94;100.00;92915.09;2106571;28;20138;-82
2022/06/23 04:18:39;;;;;;;6.38;4.43;;;;;;;12.95;100.00;92913.91;2099328;28;20027;-82
2022/06/23 04:19:48;;;;;;;8.68;4.65;;;;;;;12.95;100.00;92913.16;2098151;28;20020;-82
2022/06/23 04:20:55;;;;;;;8.35;5.10;;;;;;;12.91;100.00;92913.28;2090586;28;20024;-83
2022/06/23 04:22:29;;;;;;;7.38;4.60;;;;;;;12.94;100.00;92909.72;2091607;28;20032;-82
2022/06/23 04:23:42;;;;;;;8.85;5.20;;;;;;;12.94;100.00;92912.41;2097902;28;20024;-81
2022/06/23 04:24:50;;;;;;;6.97;4.90;;;;;;;13.02;100.00;92908.28;2085081;28;20025;-81
2022/06/23 04:25:59;;;;;;;7.70;4.75;;;;;;;13.13;100.00;92910.63;2083600;28;20036;-82
2022/06/23 04:27:15;;;;;;;9.23;5.28;;;;;;;13.11;100.00;92900.31;2090238;28;20051;-82
2022/06/23 04:28:31;;;;;;;7.95;6.13;;;;;;;13.17;100.00;92908.56;2083609;28;20037;-82
2022/06/23 04:29:37;;;;;;;11.65;5.30;;;;;;;13.22;100.00;92904.56;2089807;28;20107;-82
2022/06/23 04:30:40;;;;;;;7.85;5.30;;;;;;;13.23;100.00;92906.09;2090584;28;20021;-82
2022/06/23 04:32:02;;;;;;;9.15;5.68;;;;;;;13.21;100.00;92905.72;2098104;28;20024;-82
2022/06/23 04:33:13;;;;;;;9.73;5.43;;;;;;;13.22;100.00;92904.56;2084594;28;20028;-82
2022/06/23 04:34:42;;;;;;;7.00;4.90;;;;;;;13.25;100.00;92909.81;2081535;28;20136;-82
2022/06/23 04:35:49;;;;;;;9.00;4.95;;;;;;;13.36;100.00;92912.13;2079282;28;20023;-82
2022/06/23 04:36:51;;;;;;;8.20;5.82;;;;;;;13.37;100.00;92910.19;2074327;28;20110;-83
2022/06/23 04:38:16;;;;;;;11.25;5.45;;;;;;;13.33;100.00;92915.69;2081941;28;20013;-82
2022/06/23 04:39:21;;;;;;;15.68;6.55;;;;;;;13.35;100.00;92918.69;2093128;28;20056;-82
2022/06/23 04:40:31;;;;;;;18.17;6.25;;;;;;;13.48;100.00;92918.63;2089675;28;20025;-82
2022/06/23 04:41:42;;;;;;;20.40;5.90;;;;;;;13.53;100.00;92932.25;2089747;28;20016;-82
2022/06/23 04:43:02;;;;;;;31.08;5.95;;;;;;;13.52;100.00;92924.59;2076297;28;20029;-83
2022/06/23 04:44:12;;;;;;;24.45;6.32;;;;;;;13.54;100.00;92931.03;2069854;28;20034;-82
2022/06/23 04:45:41;;;;;;;57.00;7.07;;;;;;;13.70;100.00;92927.41;2084496;28;20028;-82
2022/06/23 04:46:50;;;;;;;39.20;6.60;;;;;;;13.72;100.00;92926.97;2089258;28;20035;-82
2022/06/23 04:47:53;;;;;;;36.10;5.97;;;;;;;13.79;100.00;92926.72;2090863;28;20021;-83
2022/06/23 04:49:04;;;;;;;21.88;6.18;;;;;;;13.76;100.00;92914.91;2080667;28;20021;-82
2022/06/23 04:50:15;;;;;;;55.38;6.60;;;;;;;13.70;100.00;92915.94;2084352;28;20031;-82
2022/06/23 04:51:45;;;;;;;11.65;6.72;;;;;;;13.74;100.00;92921.88;2092199;28;20033;-83
2022/06/23 04:52:54;;;;;;;37.15;6.63;;;;;;;13.72;100.00;92914.28;2056536;28;20112;-81
2022/06/23 04:53:58;;;;;;;140.52;8.02;;;;;;;13.75;100.00;92908.03;2080846;28;20053;-82
2022/06/23 04:55:07;;;;;;;29.05;5.95;;;;;;;13.80;100.00;92915.50;2082473;28;20091;-82
2022/06/23 04:56:20;;;;;;;32.67;6.57;;;;;;;13.81;100.00;92917.00;2083155;28;20025;-83
2022/06/23 04:57:25;;;;;;;29.02;6.70;;;;;;;13.81;100.00;92919.69;2084779;28;20030;-82
2022/06/23 04:58:28;;;;;;;18.67;6.60;;;;;;;13.93;100.00;92920.81;2090024;28;20493;-81
2022/06/23 04:59:35;;;;;;;13.25;6.25;;;;;;;13.91;100.00;92922.41;2081624;28;20041;-83
2022/06/23 05:00:42;;;;;;;34.45;6.38;;;;;;;13.91;100.00;92925.84;2073900;28;20100;-82
2022/06/23 05:01:46;;;;;;;33.35;7.00;;;;;;;13.91;100.00;92928.53;2074441;28;20037;-82
2022/06/23 05:02:54;;;;;;;14.13;6.18;;;;;;;13.99;100.00;92924.41;2081873;28;20021;-82
2022/06/23 05:03:58;;;;;;;16.77;5.97;;;;;;;14.06;100.00;92926.81;2078751;28;20300;-82
2022/06/23 05:05:07;;;;;;;16.10;7.07;;;;;;;14.13;100.00;92925.03;2078191;28;20766;-82
2022/06/23 05:06:11;;;;;;;11.63;6.40;;;;;;;14.21;100.00;92927.03;2093651;28;20020;-82
2022/06/23 05:07:25;;;;;;;12.77;5.70;;;;;;;14.27;100.00;92930.63;2096185;28;20709;-82
2022/06/23 05:08:30;;;;;;;10.38;5.68;;;;;;;14.34;100.00;92926.91;2095201;28;20047;-82
2022/06/23 05:09:34;;;;;;;10.32;5.63;;;;;;;14.33;100.00;92930.81;2084713;28;20029;-82
2022/06/23 05:10:47;;;;;;;72.10;7.10;;;;;;;14.30;100.00;92937.06;2088823;28;20029;-82
2022/06/23 05:11:55;;;;;;;16.48;5.82;;;;;;;14.31;100.00;92933.94;2090066;28;20078;-82
2022/06/23 05:13:01;;;;;;;15.68;6.03;;;;;;;14.45;100.00;92942.66;2082104;28;20022;-82
2022/06/23 05:14:13;;;;;;;23.17;6.28;;;;;;;14.41;100.00;92934.72;2088936;28;20025;-81
2022/06/23 05:15:25;;;;;;;14.27;6.00;;;;;;;14.49;100.00;92938.66;2076863;28;20049;-82
2022/06/23 05:16:36;;;;;;;56.55;6.30;;;;;;;14.68;100.00;92938.69;2098018;28;20032;-82
2022/06/23 05:17:47;;;;;;;183.18;8.88;;;;;;;14.47;100.00;92946.38;2081450;28;20057;-82
2022/06/23 05:18:52;;;;;;;72.35;6.65;;;;;;;14.35;100.00;92947.22;2091058;28;20272;-82
2022/06/23 05:19:59;;;;;;;82.85;6.80;;;;;;;14.41;100.00;92948.16;2091082;28;20035;-82
2022/06/23 05:21:10;;;;;;;49.20;5.97;;;;;;;14.48;100.00;92939.81;2084373;28;20135;-81
2022/06/23 05:22:32;;;;;;;58.08;6.18;;;;;;;14.47;100.00;92949.06;2096285;28;20020;-81
2022/06/23 05:23:46;;;;;;;8.52;5.60;;;;;;;14.51;100.00;92946.25;2101868;28;20362;-81
2022/06/23 05:24:49;;;;;;;93.15;7.78;;;;;;;14.44;100.00;92952.63;2086563;28;20755;-82
2022/06/23 05:25:54;;;;;;;20.67;6.10;;;;;;;14.52;100.00;92951.19;2086965;28;20506;-82
2022/06/23 05:27:01;;;;;;;98.57;7.15;;;;;;;14.51;100.00;92943.56;2089267;28;20563;-82
2022/06/23 05:28:14;;;;;;;12.13;6.13;;;;;;;14.56;100.00;92943.00;2088749;28;20029;-81
2022/06/23 05:29:23;;;;;;;22.52;6.40;;;;;;;14.56;100.00;92935.66;2075569;28;20029;-81
2022/06/23 05:30:31;;;;;;;46.83;7.28;;;;;;;14.62;100.00;92938.53;2081458;28;20528;-81
2022/06/23 05:31:35;;;;;;;94.63;8.25;;;;;;;14.51;100.00;92940.88;2080712;28;20040;-82
2022/06/23 05:32:48;;;;;;;87.45;8.27;;;;;;;14.57;100.00;92937.19;2080362;28;20104;-81
2022/06/23 05:33:53;;;;;;;84.40;7.75;;;;;;;14.48;100.00;92942.50;2081861;28;20470;-82
2022/06/23 05:34:57;;;;;;;40.92;7.57;;;;;;;14.54;100.00;92940.75;2094366;28;20016;-81
2022/06/23 05:36:17;;;;;;;47.65;7.68;;;;;;;14.44;100.00;92941.88;2087876;28;20036;-82
2022/06/23 05:37:34;;;;;;;;;;;;;;;14.46;100.00;92939.50;2092511;28;20736;-82
2022/06/23 05:39:01;;;;;;;17.73;6.22;;;;;;;14.59;100.00;92939.41;2074379;28;20452;-82
2022/06/23 05:40:23;;;;;;;7.47;5.55;;;;;;;14.66;100.00;92941.06;2092332;28;20093;-81
2022/06/23 05:41:34;;;;;;;40.83;6.18;;;;;;;14.60;100.00;92938.22;2093707;28;20116;-82
2022/06/23 05:42:39;;;;;;;10.05;5.97;;;;;;;14.69;100.00;92935.53;2090128;28;20025;-81
2022/06/23 05:43:41;;;;;;;14.75;5.68;;;;;;;14.75;100.00;92933.00;2091281;28;20025;-81
2022/06/23 05:44:51;;;;;;;12.73;6.25;;;;;;;14.78;100.00;92932.84;2097792;28;20024;-82